Lleida, Spain
Current Conditions -  °F | °C
As of 9:00 AM on Wednesday 22 Oct 2014 (Local Time) from LERS Reporting Station
Clear Clear  
Wind Chill: 66°   Ceiling: Unl
Heat Index: 66°   Visibility: 6mi
Dew Point: 45°   Wind: 17mph
Humidity: 46%   Direction: 290°WNW
Pressure: 30.15"   Gusts: NA
Location:  41.61°N, 0.63°E
Report Text: LERS 220700Z 29015KT 260V320 CAVOK 19/07 Q1021
Loading
Personal Weather Stations






























Interactive Weather Map
Tropical Storm Tracking
New forecast layout! Learn more

10-Day Weather Forecast

Advertisements
Track Severe Weather on mobile